Time;durP1;ratioP1;P1;durP2;ratioP2;P2;SDS_P1;SDS_P2;PMS_P1;PMS_P2;Temp;Humidity;BMP_temperature;BMP_pressure;BME280_temperature;BME280_humidity;BME280_pressure;Samples;Min_cycle;Max_cycle;Signal;HPM_P1;HPM_P2
2023/03/03 00:02:03;;;;;;;87.50;34.90;;;;;;;7.52;100.00;94359.00;5077848;28;20059;-86
2023/03/03 00:04:28;;;;;;;91.13;35.38;;;;;;;7.41;100.00;94363.34;5060105;28;20039;-87
2023/03/03 00:06:54;;;;;;;91.45;36.40;;;;;;;7.44;100.00;94362.84;5060390;28;20024;-86
2023/03/03 00:09:19;;;;;;;100.25;38.75;;;;;;;6.88;100.00;94351.59;5059839;28;20029;-86
2023/03/03 00:11:47;;;;;;;91.72;37.00;;;;;;;7.35;100.00;94360.66;5059713;28;20483;-86
2023/03/03 00:14:30;;;;;;;105.20;41.00;;;;;;;7.19;100.00;94349.31;5076360;28;20028;-86
2023/03/03 00:16:57;;;;;;;102.18;39.38;;;;;;;7.15;100.00;94353.44;5076391;28;20315;-87
2023/03/03 00:19:23;;;;;;;90.78;36.47;;;;;;;7.24;100.00;94353.78;5059739;28;20029;-86
2023/03/03 00:21:50;;;;;;;100.22;38.28;;;;;;;7.30;100.00;94357.22;5076264;28;20020;-86
2023/03/03 00:24:35;;;;;;;109.53;40.88;;;;;;;7.08;100.00;94348.41;5076147;28;20126;-86
2023/03/03 00:27:15;;;;;;;106.10;38.90;;;;;;;7.37;100.00;94344.78;5076151;28;20048;-86
2023/03/03 00:29:45;;;;;;;83.50;34.13;;;;;;;7.64;100.00;94346.59;5075977;28;20096;-86
2023/03/03 00:32:13;;;;;;;104.85;34.38;;;;;;;7.32;100.00;94344.75;5059618;28;20341;-86
2023/03/03 00:34:40;;;;;;;82.10;31.70;;;;;;;7.46;100.00;94342.50;5076235;28;20570;-86
2023/03/03 00:37:19;;;;;;;93.22;34.72;;;;;;;7.48;100.00;94343.06;5076032;28;20024;-86
2023/03/03 00:39:44;;;;;;;83.50;32.63;;;;;;;7.20;100.00;94344.88;5077061;28;20062;-86
2023/03/03 00:42:15;;;;;;;177.15;38.80;;;;;;;7.34;100.00;94343.44;5077059;28;20352;-87
2023/03/03 00:44:41;;;;;;;83.75;33.85;;;;;;;7.16;100.00;94339.38;5075897;28;20158;-87
2023/03/03 00:47:31;;;;;;;83.22;33.63;;;;;;;7.56;100.00;94334.00;5077049;28;20086;-87
2023/03/03 00:50:06;;;;;;;62.70;27.40;;;;;;;7.70;100.00;94337.75;5076018;28;20025;-87
2023/03/03 00:52:39;;;;;;;71.35;29.15;;;;;;;7.50;100.00;94336.56;5076901;28;20033;-86
2023/03/03 00:55:06;;;;;;;89.60;36.65;;;;;;;7.31;100.00;94343.16;5075630;28;20036;-87
2023/03/03 00:57:32;;;;;;;99.38;40.22;;;;;;;7.10;100.00;94340.38;5075941;28;20449;-86
2023/03/03 00:59:57;;;;;;;86.85;35.65;;;;;;;7.18;100.00;94339.94;5075455;28;20068;-86
2023/03/03 01:02:23;;;;;;;81.63;30.75;;;;;;;7.00;100.00;94330.63;5059186;28;20481;-86
2023/03/03 01:04:50;;;;;;;87.57;32.67;;;;;;;7.08;100.00;94332.00;5075148;28;20073;-87
2023/03/03 01:07:16;;;;;;;76.15;31.05;;;;;;;7.14;100.00;94325.81;5058969;28;20035;-87
2023/03/03 01:09:42;;;;;;;72.30;28.35;;;;;;;7.35;100.00;94323.41;5075699;28;20036;-86
2023/03/03 01:12:07;;;;;;;79.85;31.75;;;;;;;7.25;100.00;94334.53;5076644;28;20033;-87
2023/03/03 01:14:33;;;;;;;65.63;24.73;;;;;;;7.36;100.00;94330.97;5059242;28;20038;-87
2023/03/03 01:16:58;;;;;;;55.80;24.33;;;;;;;7.52;100.00;94320.66;5058659;28;20035;-86
2023/03/03 01:19:24;;;;;;;67.60;24.98;;;;;;;7.53;100.00;94318.84;5075388;28;20357;-86
2023/03/03 01:21:50;;;;;;;76.20;31.05;;;;;;;7.63;100.00;94317.09;5075450;28;20020;-87
2023/03/03 01:24:15;;;;;;;76.75;31.92;;;;;;;7.74;100.00;94317.94;5075723;28;20386;-86
2023/03/03 01:26:41;;;;;;;65.50;28.25;;;;;;;7.79;100.00;94306.78;5075422;28;20025;-86
2023/03/03 01:29:06;;;;;;;73.85;32.08;;;;;;;7.41;100.00;94306.00;5075416;28;20021;-87
2023/03/03 01:31:31;;;;;;;80.38;30.02;;;;;;;7.52;100.00;94304.25;5075302;28;20056;-87
2023/03/03 01:33:57;;;;;;;72.90;28.52;;;;;;;7.71;100.00;94300.19;5058796;28;20338;-87
2023/03/03 01:36:23;;;;;;;69.90;28.92;;;;;;;7.82;100.00;94301.09;5059380;28;20087;-86
2023/03/03 01:38:49;;;;;;;78.57;31.58;;;;;;;7.61;100.00;94292.31;5058623;28;20029;-86
2023/03/03 01:41:15;;;;;;;76.43;29.58;;;;;;;7.66;100.00;94291.56;5069664;28;20435;-86
2023/03/03 01:43:46;;;;;;;75.45;28.05;;;;;;;7.76;100.00;94292.44;5047064;28;20048;-86
2023/03/03 01:46:21;;;;;;;69.15;27.10;;;;;;;7.86;100.00;94281.28;5066535;28;20027;-86
2023/03/03 01:48:46;;;;;;;70.72;26.90;;;;;;;7.53;100.00;94288.34;5064458;28;20036;-86
2023/03/03 01:51:18;;;;;;;100.88;36.65;;;;;;;7.61;100.00;94289.72;5062696;28;20033;-86
2023/03/03 01:53:47;;;;;;;83.57;35.05;;;;;;;7.35;100.00;94287.69;5075578;28;20109;-86
2023/03/03 01:56:13;;;;;;;89.22;34.28;;;;;;;7.49;100.00;94285.47;5055671;28;20060;-86
2023/03/03 01:58:43;;;;;;;66.63;26.45;;;;;;;7.62;100.00;94293.91;5054795;28;20029;-86
2023/03/03 02:01:13;;;;;;;64.30;25.63;;;;;;;7.81;100.00;94291.66;5055038;28;20017;-86
2023/03/03 02:03:39;;;;;;;65.75;23.65;;;;;;;7.87;100.00;94276.81;5055333;28;20025;-86
2023/03/03 02:06:07;;;;;;;53.88;22.95;;;;;;;8.11;100.00;94281.66;5054968;28;20307;-86
2023/03/03 02:08:40;;;;;;;59.63;24.85;;;;;;;8.12;100.00;94281.41;5056012;28;20075;-86
2023/03/03 02:11:07;;;;;;;53.30;22.73;;;;;;;8.00;100.00;94286.81;5054923;28;20033;-86
2023/03/03 02:13:33;;;;;;;55.15;23.20;;;;;;;7.90;100.00;94284.16;5054883;28;20084;-86
2023/03/03 02:15:59;;;;;;;54.13;21.77;;;;;;;7.94;100.00;94274.78;5038465;28;20033;-87
2023/03/03 02:18:25;;;;;;;46.17;21.42;;;;;;;8.00;100.00;94278.22;5047144;28;20060;-86
2023/03/03 02:20:50;;;;;;;47.42;21.73;;;;;;;7.87;100.00;94275.00;5058794;28;20378;-87
2023/03/03 02:23:39;;;;;;;45.38;21.30;;;;;;;7.98;100.00;94275.09;5058793;28;20029;-86
2023/03/03 02:26:08;;;;;;;48.80;21.90;;;;;;;7.86;100.00;94278.66;5058427;28;20063;-86
2023/03/03 02:28:56;;;;;;;51.47;21.67;;;;;;;7.99;100.00;94268.81;5058613;28;20086;-86
2023/03/03 02:31:24;;;;;;;51.53;23.17;;;;;;;7.96;100.00;94269.31;5058269;28;20438;-86
2023/03/03 02:33:50;;;;;;;48.60;21.27;;;;;;;7.84;100.00;94261.69;5058375;28;20025;-86
2023/03/03 02:36:27;;;;;;;54.83;21.80;;;;;;;7.91;100.00;94268.25;5058289;28;20064;-86
2023/03/03 02:39:25;;;;;;;50.50;21.50;;;;;;;8.06;100.00;94269.38;5041617;28;20036;-86
2023/03/03 02:42:24;;;;;;;48.45;21.23;;;;;;;8.18;100.00;94271.78;5059179;28;20036;-86
2023/03/03 02:44:50;;;;;;;47.03;21.52;;;;;;;7.79;100.00;94270.25;5041627;28;20354;-86
2023/03/03 02:47:15;;;;;;;48.60;22.40;;;;;;;7.63;100.00;94269.38;5041735;28;20078;-86
2023/03/03 02:49:42;;;;;;;57.40;22.77;;;;;;;7.64;100.00;94265.75;5059166;28;20055;-86
2023/03/03 02:52:09;;;;;;;55.63;23.90;;;;;;;7.77;100.00;94260.09;5057978;28;20040;-86
2023/03/03 02:54:35;;;;;;;58.05;22.40;;;;;;;7.70;100.00;94259.50;5057872;28;20039;-86
2023/03/03 02:57:01;;;;;;;55.00;23.40;;;;;;;7.73;100.00;94264.22;5057944;28;20350;-86
2023/03/03 02:59:27;;;;;;;53.65;23.45;;;;;;;7.74;100.00;94262.41;5057723;28;20401;-86
2023/03/03 03:01:53;;;;;;;51.55;22.65;;;;;;;7.91;100.00;94260.44;5057890;28;20051;-86
2023/03/03 03:04:21;;;;;;;62.55;22.17;;;;;;;8.01;100.00;94262.28;5057839;28;20037;-86
2023/03/03 03:06:47;;;;;;;59.00;24.35;;;;;;;7.87;100.00;94263.78;5057711;28;20040;-86
2023/03/03 03:09:15;;;;;;;55.38;23.27;;;;;;;7.92;100.00;94259.38;5057636;28;20354;-86
2023/03/03 03:11:41;;;;;;;51.58;22.48;;;;;;;7.74;100.00;94265.03;5057612;28;20052;-86
2023/03/03 03:14:08;;;;;;;58.80;23.23;;;;;;;7.81;100.00;94264.81;5041352;28;20422;-86
2023/03/03 03:16:33;;;;;;;50.08;20.13;;;;;;;7.76;100.00;94257.72;5057908;28;20056;-86
2023/03/03 03:19:00;;;;;;;50.65;21.27;;;;;;;7.95;100.00;94259.91;5057356;28;20400;-86
2023/03/03 03:21:26;;;;;;;48.45;21.60;;;;;;;7.89;100.00;94256.47;5041057;28;20075;-86
2023/03/03 03:23:51;;;;;;;56.03;21.45;;;;;;;7.81;100.00;94251.75;5057460;28;20393;-86
2023/03/03 03:26:19;;;;;;;59.35;22.73;;;;;;;7.75;100.00;94253.56;5057609;28;20036;-86
2023/03/03 03:28:45;;;;;;;55.63;22.15;;;;;;;7.75;100.00;94249.13;5040204;28;20076;-86
2023/03/03 03:31:11;;;;;;;56.38;21.00;;;;;;;7.46;100.00;94251.28;5057252;28;20036;-86
2023/03/03 03:33:36;;;;;;;53.90;20.45;;;;;;;7.47;100.00;94256.25;5057182;28;20033;-86
2023/03/03 03:36:03;;;;;;;46.03;20.85;;;;;;;7.49;100.00;94266.41;5040748;28;20036;-86
2023/03/03 03:38:30;;;;;;;59.38;23.05;;;;;;;7.42;100.00;94258.81;5057091;28;20075;-86
2023/03/03 03:40:56;;;;;;;46.50;19.35;;;;;;;7.50;100.00;94258.34;5057120;28;20082;-86
2023/03/03 03:43:21;;;;;;;49.28;20.27;;;;;;;7.53;100.00;94253.66;5040724;28;20036;-86
2023/03/03 03:45:47;;;;;;;49.67;21.05;;;;;;;7.24;100.00;94259.19;5058178;28;20439;-86
2023/03/03 03:48:12;;;;;;;52.42;21.10;;;;;;;7.34;100.00;94251.47;5040516;28;20067;-86
2023/03/03 03:50:38;;;;;;;53.00;22.08;;;;;;;7.59;100.00;94244.84;5056863;28;20032;-86
2023/03/03 03:53:05;;;;;;;47.90;20.75;;;;;;;7.72;100.00;94246.25;5040742;28;20037;-86
2023/03/03 03:55:30;;;;;;;50.75;20.65;;;;;;;7.63;100.00;94244.09;5040393;28;20051;-86
2023/03/03 03:57:56;;;;;;;55.08;21.13;;;;;;;7.55;100.00;94241.97;5057950;28;20056;-86
2023/03/03 04:00:22;;;;;;;46.50;20.20;;;;;;;7.85;100.00;94256.22;5057672;28;20410;-86
2023/03/03 04:02:47;;;;;;;45.75;19.33;;;;;;;7.66;100.00;94245.41;5056707;28;20033;-86
2023/03/03 04:05:13;;;;;;;49.97;19.85;;;;;;;7.77;100.00;94254.09;5056663;28;20032;-86
2023/03/03 04:07:38;;;;;;;43.33;20.20;;;;;;;7.76;100.00;94250.69;5056609;28;20112;-86
2023/03/03 04:10:04;;;;;;;40.78;17.48;;;;;;;7.95;100.00;94252.88;5057513;28;20040;-86
2023/03/03 04:12:37;;;;;;;43.42;17.73;;;;;;;7.91;100.00;94250.00;5039941;28;20059;-86
2023/03/03 04:15:07;;;;;;;47.83;18.97;;;;;;;7.93;100.00;94244.53;5065213;28;20033;-87
2023/03/03 04:17:33;;;;;;;45.70;20.27;;;;;;;7.66;100.00;94242.00;5063652;28;20362;-86
2023/03/03 04:19:58;;;;;;;44.92;19.77;;;;;;;7.56;100.00;94229.69;5049860;28;20404;-86
2023/03/03 04:22:24;;;;;;;51.20;19.80;;;;;;;7.52;100.00;94231.25;5045300;28;20328;-86
2023/03/03 04:24:49;;;;;;;54.58;20.05;;;;;;;7.59;100.00;94234.41;5057525;28;20055;-86
2023/03/03 04:27:15;;;;;;;51.83;20.83;;;;;;;7.40;100.00;94234.03;5056437;28;20025;-86
2023/03/03 04:29:40;;;;;;;46.90;20.05;;;;;;;7.48;100.00;94230.94;5039623;28;20124;-86
2023/03/03 04:32:06;;;;;;;51.30;21.33;;;;;;;7.27;100.00;94233.44;5057221;28;20033;-86
2023/03/03 04:34:32;;;;;;;63.70;23.67;;;;;;;7.27;100.00;94243.06;5055887;28;20035;-86
2023/03/03 04:36:57;;;;;;;60.70;23.05;;;;;;;7.32;100.00;94237.91;5039477;28;20025;-86
2023/03/03 04:39:23;;;;;;;49.67;21.20;;;;;;;7.53;100.00;94232.81;5039082;28;20028;-86
2023/03/03 04:41:48;;;;;;;51.75;20.48;;;;;;;7.58;100.00;94240.66;5055895;28;20354;-86
2023/03/03 04:44:14;;;;;;;55.30;23.63;;;;;;;7.54;100.00;94234.38;5039407;28;20040;-86
2023/03/03 04:46:39;;;;;;;55.55;22.75;;;;;;;7.44;100.00;94242.91;5055865;28;20431;-86
2023/03/03 04:49:07;;;;;;;57.05;22.73;;;;;;;7.22;100.00;94236.78;5039141;28;20029;-86
2023/03/03 04:51:33;;;;;;;59.65;21.98;;;;;;;7.29;100.00;94236.56;5056009;28;20029;-86
2023/03/03 04:53:58;;;;;;;46.97;21.73;;;;;;;7.11;100.00;94229.13;5039300;28;20062;-86
2023/03/03 04:56:24;;;;;;;52.17;21.70;;;;;;;7.30;100.00;94234.72;5055481;28;20032;-86
2023/03/03 04:58:49;;;;;;;51.17;20.55;;;;;;;7.27;100.00;94230.03;5038526;28;20033;-86
2023/03/03 05:01:14;;;;;;;51.50;21.33;;;;;;;7.44;100.00;94224.69;5055643;28;20441;-86
2023/03/03 05:03:40;;;;;;;58.38;21.08;;;;;;;7.36;100.00;94218.09;5039205;28;20422;-86
2023/03/03 05:06:06;;;;;;;55.83;23.00;;;;;;;7.61;100.00;94222.69;5071955;28;20047;-86
2023/03/03 05:08:31;;;;;;;53.40;21.10;;;;;;;7.70;100.00;94217.78;5075434;28;20059;-86
2023/03/03 05:11:00;;;;;;;61.00;21.33;;;;;;;7.83;100.00;94226.22;5058957;28;20068;-86
2023/03/03 05:13:30;;;;;;;47.88;20.63;;;;;;;7.90;100.00;94227.56;5075626;28;20085;-86
2023/03/03 05:15:56;;;;;;;48.53;21.30;;;;;;;7.76;100.00;94223.81;5059091;28;20335;-86
2023/03/03 05:18:22;;;;;;;57.88;21.95;;;;;;;7.83;100.00;94227.00;5058892;28;20040;-86
2023/03/03 05:20:49;;;;;;;55.42;21.55;;;;;;;7.88;100.00;94218.41;5058640;28;20028;-86
2023/03/03 05:23:14;;;;;;;43.75;19.67;;;;;;;7.61;100.00;94216.72;5075437;28;20461;-86
2023/03/03 05:25:41;;;;;;;49.70;20.33;;;;;;;7.80;100.00;94222.28;5075293;28;20119;-86
2023/03/03 05:28:08;;;;;;;45.70;19.45;;;;;;;7.83;100.00;94215.78;5075288;28;20177;-86
2023/03/03 05:30:33;;;;;;;49.47;20.77;;;;;;;7.72;100.00;94215.72;5075183;28;20115;-86
2023/03/03 05:32:59;;;;;;;54.70;20.95;;;;;;;7.66;100.00;94216.72;5058627;28;20472;-86
2023/03/03 05:35:25;;;;;;;48.28;21.27;;;;;;;7.58;100.00;94225.00;5076492;28;20054;-86
2023/03/03 05:37:51;;;;;;;50.70;21.52;;;;;;;7.57;100.00;94221.63;5075219;28;20059;-86
2023/03/03 05:40:17;;;;;;;48.03;21.08;;;;;;;7.67;100.00;94217.50;5075331;28;20020;-86
2023/03/03 05:42:43;;;;;;;46.67;19.98;;;;;;;7.50;100.00;94214.03;5075258;28;20380;-87
2023/03/03 05:45:09;;;;;;;51.67;20.75;;;;;;;7.56;100.00;94216.66;5075528;28;20028;-86
2023/03/03 05:47:34;;;;;;;51.38;22.48;;;;;;;7.47;100.00;94217.16;5075208;28;20131;-87
2023/03/03 05:50:00;;;;;;;60.80;23.10;;;;;;;7.40;100.00;94213.97;5075352;28;20096;-86
2023/03/03 05:52:25;;;;;;;50.83;21.13;;;;;;;7.47;100.00;94217.16;5077099;28;20039;-87
2023/03/03 05:54:50;;;;;;;50.30;18.35;;;;;;;7.43;100.00;94212.69;5079407;28;20039;-87
2023/03/03 05:57:16;;;;;;;40.25;18.10;;;;;;;7.46;100.00;94218.19;5079238;28;20032;-85
2023/03/03 05:59:41;;;;;;;47.83;19.13;;;;;;;7.33;100.00;94213.41;5078847;28;20044;-87
2023/03/03 06:02:07;;;;;;;46.47;19.25;;;;;;;7.31;100.00;94218.06;5062492;28;20028;-92
2023/03/03 06:04:33;;;;;;;49.85;19.35;;;;;;;7.07;100.00;94215.81;5072472;28;20354;-86
2023/03/03 06:06:58;;;;;;;47.65;19.80;;;;;;;7.18;100.00;94221.88;5071747;28;20028;-86
2023/03/03 06:09:25;;;;;;;46.25;19.00;;;;;;;7.10;100.00;94220.53;5042392;28;20055;-86
2023/03/03 06:11:52;;;;;;;35.03;16.45;;;;;;;6.95;100.00;94228.22;5071165;28;20043;-86
2023/03/03 06:14:20;;;;;;;46.25;18.85;;;;;;;7.01;100.00;94222.00;5078740;28;20476;-87
2023/03/03 06:16:47;;;;;;;48.35;19.60;;;;;;;7.10;100.00;94224.94;5079082;28;20346;-87
2023/03/03 06:19:13;;;;;;;57.40;20.02;;;;;;;7.11;100.00;94229.91;5078540;28;20028;-87
2023/03/03 06:21:38;;;;;;;46.75;19.60;;;;;;;7.24;100.00;94233.13;5078899;28;20373;-87
2023/03/03 06:24:04;;;;;;;44.63;19.65;;;;;;;7.09;100.00;94237.19;5061214;28;20040;-88
2023/03/03 06:26:31;;;;;;;50.47;18.95;;;;;;;6.83;100.00;94241.38;5062264;28;20075;-87
2023/03/03 06:28:56;;;;;;;59.00;20.23;;;;;;;6.91;100.00;94239.13;5078633;28;20032;-86
2023/03/03 06:31:21;;;;;;;53.00;20.90;;;;;;;7.02;100.00;94245.19;5078641;28;20037;-87
2023/03/03 06:33:47;;;;;;;49.88;20.55;;;;;;;6.99;100.00;94244.91;5078588;28;20032;-88
2023/03/03 06:36:12;;;;;;;54.58;21.23;;;;;;;7.09;100.00;94242.41;5062188;28;20040;-87
2023/03/03 06:38:38;;;;;;;71.57;23.38;;;;;;;7.09;100.00;94247.59;5078322;28;20036;-88
2023/03/03 06:41:06;;;;;;;67.68;23.75;;;;;;;7.32;100.00;94253.53;5078521;28;20044;-87
2023/03/03 06:43:32;;;;;;;66.80;22.50;;;;;;;7.47;100.00;94258.06;5079650;28;20032;-87
2023/03/03 06:45:58;;;;;;;61.90;22.88;;;;;;;7.57;100.00;94255.53;5078355;28;20449;-88
2023/03/03 06:48:23;;;;;;;63.38;23.92;;;;;;;7.75;100.00;94251.75;5078334;28;20033;-88
2023/03/03 06:50:49;;;;;;;66.18;23.25;;;;;;;7.86;100.00;94260.41;5078504;28;20032;-87
2023/03/03 06:53:16;;;;;;;62.13;24.23;;;;;;;8.13;100.00;94256.91;5061781;28;20066;-88
2023/03/03 06:55:43;;;;;;;58.85;23.20;;;;;;;8.50;100.00;94260.47;5061775;28;20032;-87
2023/03/03 06:58:16;;;;;;;60.97;24.10;;;;;;;8.89;100.00;94259.25;5061858;28;20028;-86
2023/03/03 07:01:03;;;;;;;58.55;23.50;;;;;;;8.58;100.00;94257.34;5077912;28;20115;-86
2023/03/03 07:03:33;;;;;;;51.72;19.70;;;;;;;8.71;100.00;94263.13;5077336;28;20040;-87
2023/03/03 07:05:59;;;;;;;44.80;18.35;;;;;;;8.57;100.00;94261.00;5061613;28;20418;-86
2023/03/03 07:08:27;;;;;;;41.67;18.90;;;;;;;8.82;100.00;94267.34;5060859;28;20433;-87
2023/03/03 07:10:53;;;;;;;39.40;17.05;;;;;;;8.81;100.00;94273.59;5061484;28;20029;-87
2023/03/03 07:13:19;;;;;;;40.13;16.65;;;;;;;8.68;100.00;94272.28;5077792;28;20028;-87
2023/03/03 07:15:46;;;;;;;44.22;16.83;;;;;;;8.90;100.00;94268.66;5061407;28;20038;-87
2023/03/03 07:18:35;;;;;;;31.73;15.13;;;;;;;9.17;100.00;94278.09;5061288;28;20272;-87
2023/03/03 07:21:19;;;;;;;35.17;17.02;;;;;;;9.44;100.00;94270.00;5078201;28;20029;-86
2023/03/03 07:23:49;;;;;;;32.30;15.82;;;;;;;9.34;100.00;94275.25;5077370;28;20028;-86
2023/03/03 07:26:18;;;;;;;39.50;17.20;;;;;;;9.29;100.00;94270.00;5060998;28;20024;-86
2023/03/03 07:28:57;;;;;;;36.25;18.05;;;;;;;9.16;100.00;94273.94;5061056;28;20028;-86
2023/03/03 07:31:29;;;;;;;36.15;17.23;;;;;;;9.25;100.00;94276.81;5077217;28;20346;-86
2023/03/03 07:33:56;;;;;;;42.72;18.08;;;;;;;9.39;100.00;94280.47;5077489;28;20043;-86
2023/03/03 07:36:30;;;;;;;33.88;16.45;;;;;;;9.30;100.00;94284.63;5060762;28;20082;-86
2023/03/03 07:39:01;;;;;;;38.17;16.60;;;;;;;9.67;100.00;94281.00;5077035;28;20028;-86
2023/03/03 07:41:27;;;;;;;36.03;16.42;;;;;;;9.78;97.35;94294.84;5060636;28;20028;-87
2023/03/03 07:44:04;;;;;;;40.58;15.88;;;;;;;10.51;100.00;94287.63;5077380;28;20039;-86
2023/03/03 07:46:30;;;;;;;30.52;15.90;;;;;;;10.01;97.83;94290.09;5077110;28;20127;-86
2023/03/03 07:48:57;;;;;;;37.10;16.88;;;;;;;10.41;99.57;94288.47;5078049;28;20056;-86
2023/03/03 07:51:31;;;;;;;42.78;15.75;;;;;;;10.67;96.29;94290.19;5060336;28;20063;-86
2023/03/03 07:54:10;;;;;;;35.00;15.25;;;;;;;10.99;96.86;94286.34;5060408;28;20094;-86
2023/03/03 07:56:35;;;;;;;33.83;14.73;;;;;;;10.70;96.27;94285.19;5078031;28;20430;-86
2023/03/03 07:59:18;;;;;;;26.45;12.95;;;;;;;11.69;86.72;94287.16;5059756;28;20028;-88
2023/03/03 08:01:45;;;;;;;27.75;13.43;;;;;;;11.54;83.28;94293.31;5077125;28;20028;-86
2023/03/03 08:04:22;;;;;;;23.45;11.82;;;;;;;11.85;80.16;94293.84;5076655;28;20033;-86
2023/03/03 08:06:49;;;;;;;30.45;12.57;;;;;;;11.55;77.48;94302.75;5076840;28;20032;-86
2023/03/03 08:09:18;;;;;;;28.52;13.98;;;;;;;11.03;82.63;94300.47;5060046;28;20033;-86
2023/03/03 08:11:48;;;;;;;28.02;11.77;;;;;;;11.34;77.65;94302.13;5076587;28;20043;-86
2023/03/03 08:14:15;;;;;;;27.98;12.57;;;;;;;11.39;77.88;94304.69;5059701;28;20085;-86
2023/03/03 08:16:40;;;;;;;30.55;13.05;;;;;;;11.41;84.03;94302.59;5076453;28;20032;-86
2023/03/03 08:19:06;;;;;;;30.65;14.00;;;;;;;11.91;75.59;94310.34;5076301;28;20032;-86
2023/03/03 08:21:33;;;;;;;32.78;14.07;;;;;;;11.94;80.11;94312.41;5076342;28;20029;-86
2023/03/03 08:23:59;;;;;;;30.33;13.25;;;;;;;11.47;83.93;94312.00;5076291;28;20119;-86
2023/03/03 08:26:25;;;;;;;31.50;12.52;;;;;;;11.99;80.51;94311.59;5076175;28;20461;-86
2023/03/03 08:28:51;;;;;;;30.05;14.20;;;;;;;11.08;88.17;94316.19;5059627;28;20032;-86
2023/03/03 08:31:17;;;;;;;32.05;14.05;;;;;;;11.34;89.55;94318.66;5076077;28;20058;-86
2023/03/03 08:33:43;;;;;;;28.63;13.82;;;;;;;11.40;83.46;94319.38;5059655;28;20028;-86
2023/03/03 08:36:09;;;;;;;27.30;12.30;;;;;;;12.10;73.90;94320.94;5059557;28;20088;-86
2023/03/03 08:38:34;;;;;;;25.17;11.13;;;;;;;12.61;73.58;94323.31;5075942;28;20040;-86
2023/03/03 08:41:00;;;;;;;25.25;12.32;;;;;;;12.29;72.71;94325.50;5059609;28;20029;-88
2023/03/03 08:43:25;;;;;;;27.85;11.27;;;;;;;12.91;70.54;94321.38;5059782;28;20346;-86
2023/03/03 08:45:53;;;;;;;24.85;11.07;;;;;;;13.76;66.04;94326.00;5076085;28;20028;-86
2023/03/03 08:48:19;;;;;;;24.77;11.25;;;;;;;13.71;63.66;94321.59;5075666;28;20036;-86
2023/03/03 08:50:46;;;;;;;24.25;11.73;;;;;;;13.09;68.57;94325.09;5075799;28;20123;-86
2023/03/03 08:53:12;;;;;;;20.70;10.02;;;;;;;13.42;69.51;94327.81;5075783;28;20033;-86
2023/03/03 08:55:39;;;;;;;23.80;11.38;;;;;;;13.44;67.87;94330.97;5059291;28;20091;-88
2023/03/03 08:58:04;;;;;;;19.75;10.38;;;;;;;13.92;62.58;94340.50;5076271;28;20098;-88
2023/03/03 09:00:30;;;;;;;21.95;9.80;;;;;;;14.05;63.78;94335.53;5058918;28;20040;-88
2023/03/03 09:02:55;;;;;;;24.08;11.40;;;;;;;14.03;63.96;94346.38;5059467;28;20389;-88
2023/03/03 09:05:23;;;;;;;18.20;10.70;;;;;;;14.61;60.25;94338.22;5075831;28;20360;-87
2023/03/03 09:07:50;;;;;;;23.65;11.45;;;;;;;13.87;62.86;94339.78;5075829;28;20108;-88
2023/03/03 09:10:18;;;;;;;21.58;10.95;;;;;;;14.55;60.03;94340.19;5076068;28;20501;-88
2023/03/03 09:12:47;;;;;;;23.40;11.40;;;;;;;14.64;60.14;94343.69;5075741;28;20036;-87
2023/03/03 09:15:25;;;;;;;243.93;123.60;;;;;;;14.37;59.11;94344.47;5059179;28;20032;-86
2023/03/03 09:17:50;;;;;;;509.20;249.05;;;;;;;14.51;59.54;94345.28;5059046;28;20035;-86
2023/03/03 09:20:36;;;;;;;94.30;48.88;;;;;;;15.18;57.75;94345.03;5058801;28;20416;-86
2023/03/03 09:23:32;;;;;;;80.60;47.38;;;;;;;15.29;56.35;94346.38;5059001;28;20058;-86
2023/03/03 09:26:25;;;;;;;47.58;23.85;;;;;;;15.77;56.62;94341.63;5074964;28;20029;-86
2023/03/03 09:28:58;;;;;;;132.45;74.78;;;;;;;14.98;56.59;94336.47;5071220;28;20047;-87
2023/03/03 09:31:29;;;;;;;156.65;75.32;;;;;;;15.39;55.57;94351.44;5058777;28;20082;-87
2023/03/03 09:33:56;;;;;;;113.15;52.78;;;;;;;15.18;57.94;94351.13;5058832;28;20126;-86
2023/03/03 09:36:37;;;;;;;149.95;74.80;;;;;;;15.16;57.92;94345.34;5059106;28;20032;-86
2023/03/03 09:39:18;;;;;;;279.33;131.90;;;;;;;14.80;57.83;94349.50;5075161;28;20032;-86
2023/03/03 09:42:21;;;;;;;53.03;23.90;;;;;;;14.81;58.18;94352.91;5075322;28;20447;-87
2023/03/03 09:45:11;;;;;;;35.70;12.50;;;;;;;15.16;56.35;94349.84;5075467;28;20051;-87
2023/03/03 09:47:50;;;;;;;25.92;12.38;;;;;;;14.70;55.25;94355.72;5075441;28;20091;-86
2023/03/03 09:50:34;;;;;;;26.33;11.68;;;;;;;14.43;56.86;94353.84;5076255;28;20035;-86
2023/03/03 09:53:18;;;;;;;34.65;14.65;;;;;;;14.65;56.64;94355.81;5076325;28;20037;-86
2023/03/03 09:56:12;;;;;;;23.80;11.85;;;;;;;15.33;56.36;94354.50;5064026;28;20033;-86
2023/03/03 09:58:44;;;;;;;24.45;12.60;;;;;;;15.67;53.43;94355.84;5038467;28;20029;-87
2023/03/03 10:01:36;;;;;;;58.33;31.65;;;;;;;15.54;55.52;94352.97;5056138;28;20029;-87
2023/03/03 10:04:33;;;;;;;26.58;12.60;;;;;;;15.37;54.91;94352.81;5056538;28;20033;-86
2023/03/03 10:07:08;;;;;;;24.85;11.65;;;;;;;15.31;55.75;94361.94;5048137;28;20076;-86
2023/03/03 10:09:48;;;;;;;22.33;12.65;;;;;;;16.03;53.33;94354.25;5071273;28;20040;-86
2023/03/03 10:12:21;;;;;;;42.47;21.98;;;;;;;15.25;57.66;94356.75;5076165;28;20430;-86
2023/03/03 10:15:05;;;;;;;23.75;10.65;;;;;;;16.18;54.87;94356.50;5074992;28;20024;-86
2023/03/03 10:17:45;;;;;;;43.03;22.98;;;;;;;15.60;52.71;94361.56;5076152;28;20063;-86
2023/03/03 10:20:33;;;;;;;31.83;16.77;;;;;;;15.98;53.65;94357.78;5074997;28;20028;-86
2023/03/03 10:23:40;;;;;;;45.63;23.30;;;;;;;16.81;52.60;94359.13;5076003;28;20032;-86
2023/03/03 10:26:33;;;;;;;49.15;27.38;;;;;;;16.03;51.15;94355.06;5041948;28;20396;-86
2023/03/03 10:29:08;;;;;;;43.05;24.02;;;;;;;16.82;50.76;94360.69;5075985;28;20024;-86
2023/03/03 10:31:55;;;;;;;40.97;22.63;;;;;;;17.02;50.34;94361.22;5075927;28;20491;-86
2023/03/03 10:34:48;;;;;;;44.15;25.20;;;;;;;16.74;50.07;94361.44;5076003;28;20035;-87
2023/03/03 10:37:38;;;;;;;44.15;30.23;;;;;;;16.53;50.64;94363.84;5075962;28;20033;-86
2023/03/03 10:40:16;;;;;;;37.13;16.65;;;;;;;16.03;51.60;94362.97;5078402;28;20505;-86
2023/03/03 10:42:52;;;;;;;32.85;14.32;;;;;;;16.24;51.89;94360.59;5061723;28;20079;-86
2023/03/03 10:45:30;;;;;;;14.57;9.25;;;;;;;15.78;51.33;94364.31;5079378;28;20028;-86
2023/03/03 10:48:29;;;;;;;20.25;10.80;;;;;;;16.46;50.42;94359.00;5071176;28;20032;-86
2023/03/03 10:51:26;;;;;;;34.95;18.33;;;;;;;16.58;50.47;94363.72;5063298;28;20124;-86
2023/03/03 10:54:01;;;;;;;20.15;10.65;;;;;;;14.96;53.98;94368.44;5068214;28;20087;-86
2023/03/03 10:56:54;;;;;;;36.10;21.85;;;;;;;15.15;54.02;94366.75;5058124;28;20035;-86
2023/03/03 10:59:35;;;;;;;93.88;56.60;;;;;;;15.49;54.43;94368.91;5058970;28;20102;-87
2023/03/03 11:02:05;;;;;;;311.00;155.90;;;;;;;15.96;52.30;94367.88;5059054;28;20036;-87
2023/03/03 11:04:44;;;;;;;57.17;31.35;;;;;;;16.62;51.32;94363.88;5058050;28;20065;-87
2023/03/03 11:07:23;;;;;;;25.48;12.55;;;;;;;16.54;50.33;94360.91;5058042;28;20033;-87
2023/03/03 11:10:13;;;;;;;37.10;19.13;;;;;;;16.00;51.29;94362.78;5057851;28;20124;-86
2023/03/03 11:12:52;;;;;;;23.05;11.10;;;;;;;15.82;51.67;94362.66;5058885;28;20078;-86
2023/03/03 11:15:20;;;;;;;30.08;12.80;;;;;;;15.35;51.61;94361.06;5058869;28;20024;-87
2023/03/03 11:18:01;;;;;;;24.70;12.93;;;;;;;15.18;53.51;94353.75;5057826;28;20035;-86
2023/03/03 11:20:26;;;;;;;25.98;13.50;;;;;;;13.98;53.39;94357.75;5058591;28;20028;-86
2023/03/03 11:22:58;;;;;;;31.77;14.00;;;;;;;13.63;56.56;94348.56;5057640;28;20078;-86
2023/03/03 11:25:57;;;;;;;24.77;13.13;;;;;;;14.61;53.45;94349.56;5057527;28;20037;-87
2023/03/03 11:29:00;;;;;;;30.00;13.55;;;;;;;14.42;53.59;94352.28;5044380;28;20346;-86
2023/03/03 11:31:43;;;;;;;22.75;11.93;;;;;;;15.26;50.61;94347.00;5058627;28;20123;-86
2023/03/03 11:34:18;;;;;;;22.10;11.38;;;;;;;15.33;50.13;94347.34;5058537;28;20029;-87